createdAt,value
2022-08-18T00:00:13.732Z,99032.78
2022-08-18T00:03:00.701Z,99032.28
2022-08-18T00:05:31.104Z,99029.16
2022-08-18T00:08:03.144Z,99034.81
2022-08-18T00:10:35.285Z,99038.97
2022-08-18T00:13:04.922Z,99038.56
2022-08-18T00:15:41.503Z,99037.75
2022-08-18T00:18:19.354Z,99046.97
2022-08-18T00:20:49.059Z,99042.38
2022-08-18T00:23:20.983Z,99052.28
2022-08-18T00:25:51.209Z,99052.19
2022-08-18T00:28:21.217Z,99046.09
2022-08-18T00:30:54.251Z,99040.44
2022-08-18T00:33:25.529Z,99041.41
2022-08-18T00:35:55.046Z,99043.56
2022-08-18T00:38:26.204Z,99038.84
2022-08-18T00:40:57.587Z,99037.59
2022-08-18T00:43:34.352Z,99040.72
2022-08-18T00:46:05.586Z,99038.22
2022-08-18T00:48:36.116Z,99044.06
2022-08-18T00:51:12.132Z,99038.50
2022-08-18T00:53:48.277Z,99044.47
2022-08-18T00:56:24.874Z,99054.09
2022-08-18T00:58:58.826Z,99066.88
2022-08-18T01:01:33.212Z,99058.97
2022-08-18T01:04:11.193Z,99060.63
2022-08-18T01:06:44.134Z,99057.63
2022-08-18T01:09:18.903Z,99053.34
2022-08-18T01:11:48.200Z,99049.03
2022-08-18T01:14:18.607Z,99048.47
2022-08-18T01:17:06.892Z,99040.56
2022-08-18T01:19:55.158Z,99036.13
2022-08-18T01:22:31.702Z,99044.91
2022-08-18T01:25:21.963Z,99037.28
2022-08-18T01:28:00.758Z,99040.63
2022-08-18T01:30:31.374Z,99049.59
2022-08-18T01:33:01.123Z,99044.03
2022-08-18T01:35:37.148Z,99045.75
2022-08-18T01:38:13.749Z,99049.66
2022-08-18T01:41:21.122Z,99046.38
2022-08-18T01:43:36.883Z,99050.00
2022-08-18T01:46:09.278Z,99054.38
2022-08-18T01:48:39.918Z,99056.16
2022-08-18T01:51:13.342Z,99048.38
2022-08-18T01:53:42.931Z,99048.16
2022-08-18T01:56:17.880Z,99051.41
2022-08-18T01:58:47.958Z,99054.66
2022-08-18T02:01:18.134Z,99059.88
2022-08-18T02:03:52.883Z,99060.97
2022-08-18T02:06:32.169Z,99057.84
2022-08-18T02:09:03.797Z,99060.78
2022-08-18T02:11:36.651Z,99062.91
2022-08-18T02:14:06.844Z,99062.84
2022-08-18T02:16:36.550Z,99075.34
2022-08-18T02:19:27.006Z,99078.38
2022-08-18T02:21:57.034Z,99077.53
2022-08-18T02:24:26.559Z,99087.69
2022-08-18T02:26:57.573Z,99086.69
2022-08-18T02:29:27.165Z,99093.25
2022-08-18T02:31:57.445Z,99094.09
2022-08-18T02:34:28.539Z,99089.00
2022-08-18T02:36:58.340Z,99086.28
2022-08-18T02:39:28.503Z,99082.44
2022-08-18T02:41:59.951Z,99090.25
2022-08-18T02:44:32.182Z,99083.97
2022-08-18T02:47:03.118Z,99093.06
2022-08-18T02:49:33.148Z,99094.66
2022-08-18T02:52:02.693Z,99097.91
2022-08-18T02:54:32.410Z,99092.00
2022-08-18T02:57:08.707Z,99093.59
2022-08-18T02:59:39.624Z,99094.97
2022-08-18T03:02:10.605Z,99091.59
2022-08-18T03:04:40.439Z,99088.44
2022-08-18T03:07:10.364Z,99088.69
2022-08-18T03:09:40.502Z,99089.06
2022-08-18T03:12:12.091Z,99090.19
2022-08-18T03:14:42.137Z,99094.91
2022-08-18T03:17:13.673Z,99088.94
2022-08-18T03:19:47.914Z,99087.34
2022-08-18T03:22:27.506Z,99091.31
2022-08-18T03:24:59.952Z,99095.13
2022-08-18T03:27:30.694Z,99086.22
2022-08-18T03:30:00.671Z,99081.03
2022-08-18T03:32:31.216Z,99089.28
2022-08-18T03:35:01.051Z,99088.38
2022-08-18T03:37:32.347Z,99084.06
2022-08-18T03:40:01.948Z,99085.97
2022-08-18T03:42:34.512Z,99083.19
2022-08-18T03:45:17.275Z,99079.50
2022-08-18T03:47:47.077Z,99087.31
2022-08-18T03:50:16.970Z,99086.53
2022-08-18T03:52:48.701Z,99091.09
2022-08-18T03:55:19.450Z,99091.09
2022-08-18T03:57:53.189Z,99096.22
2022-08-18T04:00:23.720Z,99086.66
2022-08-18T04:02:52.940Z,99088.75
2022-08-18T04:05:23.855Z,99088.84
2022-08-18T04:07:55.512Z,99089.75
2022-08-18T04:10:25.163Z,99090.13
2022-08-18T04:12:56.266Z,99092.16
2022-08-18T04:15:27.292Z,99095.00
2022-08-18T04:18:06.073Z,99092.56
2022-08-18T04:20:36.029Z,99093.25
2022-08-18T04:23:06.046Z,99087.19
2022-08-18T04:25:35.828Z,99083.03
2022-08-18T04:28:07.426Z,99079.84
2022-08-18T04:30:37.267Z,99088.97
2022-08-18T04:33:07.841Z,99094.28
2022-08-18T04:35:38.319Z,99091.75
2022-08-18T04:38:08.037Z,99088.78
2022-08-18T04:40:38.219Z,99091.56
2022-08-18T04:43:15.635Z,99089.91
2022-08-18T04:45:49.373Z,99101.72
2022-08-18T04:48:19.387Z,99100.00
2022-08-18T04:50:53.755Z,99100.00
2022-08-18T04:53:41.433Z,99103.53
2022-08-18T04:56:16.033Z,99101.53
2022-08-18T04:59:13.413Z,99108.28
2022-08-18T05:01:45.843Z,99107.59
2022-08-18T05:04:16.738Z,99110.81
2022-08-18T05:06:47.823Z,99114.53
2022-08-18T05:09:22.785Z,99106.25
2022-08-18T05:12:26.105Z,99103.19
2022-08-18T05:15:06.806Z,99114.25
2022-08-18T05:17:39.933Z,99112.22
2022-08-18T05:20:12.616Z,99110.47
2022-08-18T05:22:43.505Z,99117.78
2022-08-18T05:25:14.567Z,99115.56
2022-08-18T05:27:44.755Z,99112.31
2022-08-18T05:30:16.972Z,99113.25
2022-08-18T05:32:50.621Z,99114.91
2022-08-18T05:35:24.863Z,99106.88
2022-08-18T05:38:06.474Z,99109.16
2022-08-18T05:40:36.519Z,99108.84
2022-08-18T05:43:08.425Z,99116.69
2022-08-18T05:45:45.150Z,99113.09
2022-08-18T05:48:16.124Z,99110.75
2022-08-18T05:50:46.705Z,99112.00
2022-08-18T05:53:20.558Z,99124.47
2022-08-18T05:56:25.608Z,99117.56
2022-08-18T05:58:57.828Z,99120.91
2022-08-18T06:01:58.675Z,99121.44
2022-08-18T06:04:37.617Z,99123.47
2022-08-18T06:07:10.653Z,99114.88
2022-08-18T06:09:45.566Z,99123.78
2022-08-18T06:12:23.990Z,99128.19
2022-08-18T06:14:56.173Z,99132.06
2022-08-18T06:17:52.564Z,99128.50
2022-08-18T06:20:34.373Z,99132.00
2022-08-18T06:23:19.696Z,99135.19
2022-08-18T06:26:03.750Z,99133.22
2022-08-18T06:28:55.919Z,99133.00
2022-08-18T06:31:32.657Z,99137.69
2022-08-18T06:34:15.525Z,99127.47
2022-08-18T06:36:54.164Z,99132.34
2022-08-18T06:39:33.310Z,99137.63
2022-08-18T06:42:06.156Z,99135.78
2022-08-18T06:44:40.747Z,99139.50
2022-08-18T06:47:16.495Z,99140.53
2022-08-18T06:49:55.147Z,99140.88
2022-08-18T06:52:30.718Z,99145.28
2022-08-18T06:55:03.135Z,99155.72
2022-08-18T06:57:35.992Z,99149.88
2022-08-18T07:00:22.265Z,99140.84
2022-08-18T07:02:56.759Z,99140.25
2022-08-18T07:05:59.748Z,99146.28
2022-08-18T07:08:35.657Z,99146.63
2022-08-18T07:11:24.037Z,99152.66
2022-08-18T07:14:15.681Z,99142.66
2022-08-18T07:17:05.117Z,99149.16
2022-08-18T07:19:36.905Z,99146.91
2022-08-18T07:22:10.862Z,99146.75
2022-08-18T07:24:50.367Z,99153.34
2022-08-18T07:27:23.121Z,99147.53
2022-08-18T07:30:03.792Z,99152.72
2022-08-18T07:32:37.171Z,99152.06
2022-08-18T07:35:10.703Z,99158.66
2022-08-18T07:37:49.799Z,99151.66
2022-08-18T07:40:29.003Z,99158.75
2022-08-18T07:43:05.090Z,99152.00
2022-08-18T07:45:45.372Z,99150.25
2022-08-18T07:51:17.290Z,99154.69
2022-08-18T07:54:01.912Z,99150.19
2022-08-18T07:56:43.100Z,99150.53
2022-08-18T07:59:19.510Z,99149.88
2022-08-18T08:01:56.988Z,99143.38
2022-08-18T08:04:41.174Z,99146.72
2022-08-18T08:07:26.450Z,99145.47
2022-08-18T08:10:13.203Z,99154.47
2022-08-18T08:12:47.025Z,99151.41
2022-08-18T08:15:30.030Z,99160.31
2022-08-18T08:18:13.243Z,99145.84
2022-08-18T08:20:53.280Z,99152.66
2022-08-18T08:23:36.091Z,99150.53
2022-08-18T08:26:29.687Z,99155.63
2022-08-18T08:29:17.055Z,99150.03
2022-08-18T08:31:55.336Z,99146.97
2022-08-18T08:34:29.295Z,99156.13
2022-08-18T08:37:04.449Z,99153.25
2022-08-18T08:39:42.454Z,99151.00
2022-08-18T08:42:29.735Z,99155.56
2022-08-18T08:45:09.234Z,99138.81
2022-08-18T08:47:46.442Z,99148.78
2022-08-18T08:50:20.738Z,99134.69
2022-08-18T08:52:57.558Z,99136.47
2022-08-18T08:55:30.385Z,99147.53
2022-08-18T08:58:15.122Z,99138.75
2022-08-18T09:00:45.891Z,99137.94
2022-08-18T09:03:36.577Z,99135.75
2022-08-18T09:06:22.179Z,99130.41
2022-08-18T09:09:11.429Z,99126.00
2022-08-18T09:12:25.157Z,99120.88
2022-08-18T09:15:32.212Z,99141.22
2022-08-18T09:18:39.302Z,99130.16
2022-08-18T09:21:26.609Z,99142.81
2022-08-18T09:24:09.778Z,99131.53
2022-08-18T09:26:44.576Z,99134.75
2022-08-18T09:29:23.602Z,99122.25
2022-08-18T09:32:26.591Z,99128.16
2022-08-18T09:35:13.687Z,99133.44
2022-08-18T09:38:15.329Z,99122.59
2022-08-18T09:41:13.829Z,99129.81
2022-08-18T09:44:12.072Z,99134.41
2022-08-18T09:46:59.276Z,99127.09
2022-08-18T09:49:51.047Z,99126.06
2022-08-18T09:53:02.453Z,99118.97
2022-08-18T09:56:05.137Z,99121.59
2022-08-18T09:58:58.913Z,99119.00
2022-08-18T10:01:42.246Z,99121.53
2022-08-18T10:04:51.510Z,99119.88
2022-08-18T10:07:32.011Z,99126.34
2022-08-18T10:11:01.172Z,99126.13
2022-08-18T10:13:37.505Z,99119.44
2022-08-18T10:16:21.382Z,99122.91
2022-08-18T10:19:08.567Z,99126.69
2022-08-18T10:22:06.588Z,99128.66
2022-08-18T10:24:42.698Z,99122.84
2022-08-18T10:27:38.067Z,99118.19
2022-08-18T10:30:56.574Z,99127.25
2022-08-18T10:34:17.114Z,99125.84
2022-08-18T10:36:54.204Z,99116.38
2022-08-18T10:39:47.048Z,99111.22
2022-08-18T10:42:31.297Z,99113.03
2022-08-18T10:45:09.747Z,99110.66
2022-08-18T10:47:45.116Z,99108.75
2022-08-18T10:50:25.468Z,99106.88
2022-08-18T10:53:40.775Z,99111.66
2022-08-18T10:56:05.277Z,99113.22
2022-08-18T10:58:54.182Z,99110.72
2022-08-18T11:01:39.933Z,99117.47
2022-08-18T11:07:19.536Z,99109.38
2022-08-18T11:10:04.716Z,99104.16
2022-08-18T11:13:07.560Z,99106.72
2022-08-18T11:15:52.648Z,99103.66
2022-08-18T11:18:36.451Z,99105.47
2022-08-18T11:21:33.618Z,99107.66
2022-08-18T11:27:20.237Z,99110.38
2022-08-18T11:29:53.752Z,99115.09
2022-08-18T11:32:29.300Z,99113.97
2022-08-18T11:35:13.604Z,99104.91
2022-08-18T11:37:57.813Z,99102.97
2022-08-18T11:41:10.546Z,99098.63
2022-08-18T11:43:47.794Z,99098.94
2022-08-18T11:46:31.808Z,99102.03
2022-08-18T11:49:23.983Z,99111.06
2022-08-18T11:52:03.312Z,99095.44
2022-08-18T11:54:50.064Z,99094.66
2022-08-18T11:57:31.967Z,99111.50
2022-08-18T12:00:27.886Z,99092.31
2022-08-18T12:03:04.987Z,99099.19
2022-08-18T12:05:56.090Z,99103.06
2022-08-18T12:08:57.886Z,99099.03
2022-08-18T12:11:31.407Z,99089.22
2022-08-18T12:14:31.897Z,99094.75
2022-08-18T12:17:05.249Z,99092.69
2022-08-18T12:19:41.687Z,99090.50
2022-08-18T12:22:17.840Z,99090.63
2022-08-18T12:24:50.546Z,99095.16
2022-08-18T12:27:25.521Z,99091.72
2022-08-18T12:30:03.864Z,99093.38
2022-08-18T12:32:56.033Z,99095.44
2022-08-18T12:35:29.981Z,99089.41
2022-08-18T12:38:03.662Z,99086.66
2022-08-18T12:40:44.515Z,99091.44
2022-08-18T12:43:15.922Z,99082.84
2022-08-18T12:45:47.335Z,99082.66
2022-08-18T12:48:17.807Z,99087.50
2022-08-18T12:53:59.463Z,99080.34
2022-08-18T12:56:33.342Z,99079.91
2022-08-18T12:59:11.944Z,99075.31
2022-08-18T13:01:42.793Z,99076.00
2022-08-18T13:04:14.292Z,99082.41
2022-08-18T13:06:59.453Z,99072.72
2022-08-18T13:09:35.253Z,99076.72
2022-08-18T13:12:14.920Z,99080.28
2022-08-18T13:14:50.938Z,99076.16
2022-08-18T13:17:30.490Z,99073.34
2022-08-18T13:20:09.139Z,99065.44
2022-08-18T13:22:46.291Z,99070.69
2022-08-18T13:25:32.542Z,99072.13
2022-08-18T13:28:11.986Z,99076.09
2022-08-18T13:30:46.788Z,99069.56
2022-08-18T13:33:34.485Z,99074.59
2022-08-18T13:36:08.756Z,99079.31
2022-08-18T13:38:43.318Z,99081.81
2022-08-18T13:41:15.676Z,99079.91
2022-08-18T13:43:47.991Z,99075.88
2022-08-18T13:46:24.169Z,99089.50
2022-08-18T13:49:03.115Z,99076.41
2022-08-18T13:51:34.475Z,99079.94
2022-08-18T13:54:28.921Z,99084.88
2022-08-18T13:56:57.724Z,99082.00
2022-08-18T13:59:31.777Z,99089.44
2022-08-18T14:02:16.366Z,99083.38
2022-08-18T14:04:49.583Z,99079.44
2022-08-18T14:07:27.629Z,99076.56
2022-08-18T14:09:59.130Z,99074.84
2022-08-18T14:12:37.559Z,99082.53
2022-08-18T14:15:16.578Z,99091.34
2022-08-18T14:17:49.539Z,99081.38
2022-08-18T14:20:39.348Z,99085.75
2022-08-18T14:23:38.579Z,99082.56
2022-08-18T14:26:32.986Z,99087.28
2022-08-18T14:29:05.207Z,99091.25
2022-08-18T14:31:35.757Z,99096.09
2022-08-18T14:34:07.290Z,99093.28
2022-08-18T14:36:38.205Z,99097.44
2022-08-18T14:39:09.141Z,99092.66
2022-08-18T14:41:40.923Z,99095.00
2022-08-18T14:44:31.840Z,99090.66
2022-08-18T14:47:03.283Z,99095.75
2022-08-18T14:49:36.380Z,99091.75
2022-08-18T14:52:17.510Z,99093.47
2022-08-18T14:54:51.164Z,99095.44
2022-08-18T14:59:58.364Z,99092.78
2022-08-18T15:02:28.246Z,99095.00
2022-08-18T15:05:19.898Z,99090.06
2022-08-18T15:07:56.491Z,99092.22
2022-08-18T15:10:29.265Z,99086.22
2022-08-18T15:13:02.284Z,99085.75
2022-08-18T15:15:50.529Z,99087.13
2022-08-18T15:18:24.239Z,99092.75
2022-08-18T15:21:19.689Z,99095.38
2022-08-18T15:24:25.420Z,99096.06
2022-08-18T15:27:05.611Z,99101.19
2022-08-18T15:29:36.417Z,99092.75
2022-08-18T15:32:13.987Z,99094.66
2022-08-18T15:34:51.345Z,99104.53
2022-08-18T15:37:24.991Z,99103.19
2022-08-18T15:40:05.629Z,99100.66
2022-08-18T15:42:50.880Z,99105.50
2022-08-18T15:45:26.667Z,99103.78
2022-08-18T15:47:59.682Z,99108.09
2022-08-18T15:50:34.049Z,99106.03
2022-08-18T15:53:16.079Z,99104.84
2022-08-18T15:55:50.296Z,99097.13
2022-08-18T15:58:27.011Z,99105.31
2022-08-18T16:01:02.943Z,99108.59
2022-08-18T16:03:55.782Z,99108.75
2022-08-18T16:06:32.537Z,99103.66
2022-08-18T16:09:05.743Z,99107.88
2022-08-18T16:11:36.979Z,99107.00
2022-08-18T16:14:09.320Z,99109.03
2022-08-18T16:16:44.076Z,99109.25
2022-08-18T16:19:15.167Z,99108.00
2022-08-18T16:21:46.611Z,99115.94
2022-08-18T16:24:22.216Z,99111.16
2022-08-18T16:26:58.144Z,99113.78
2022-08-18T16:29:33.109Z,99115.50
2022-08-18T16:32:04.295Z,99121.25
2022-08-18T16:34:39.957Z,99119.25
2022-08-18T16:37:11.402Z,99121.91
2022-08-18T16:39:43.514Z,99119.72
2022-08-18T16:42:14.195Z,99116.16
2022-08-18T16:44:45.514Z,99119.91
2022-08-18T16:47:18.948Z,99121.16
2022-08-18T16:49:52.022Z,99122.41
2022-08-18T16:52:30.764Z,99129.22
2022-08-18T16:55:08.879Z,99125.78
2022-08-18T16:58:03.693Z,99134.97
2022-08-18T17:00:55.380Z,99131.06
2022-08-18T17:03:46.501Z,99136.22
2022-08-18T17:06:21.990Z,99135.41
2022-08-18T17:08:52.420Z,99142.84
2022-08-18T17:11:30.651Z,99146.13
2022-08-18T17:14:03.623Z,99160.56
2022-08-18T17:16:39.735Z,99161.53
2022-08-18T17:19:10.425Z,99159.63
2022-08-18T17:21:43.665Z,99161.00
2022-08-18T17:24:15.177Z,99168.56
2022-08-18T17:27:26.095Z,99168.97
2022-08-18T17:30:04.499Z,99175.91
2022-08-18T17:32:43.010Z,99177.44
2022-08-18T17:35:16.989Z,99181.25
2022-08-18T17:37:52.093Z,99170.81
2022-08-18T17:40:29.027Z,99186.63
2022-08-18T17:43:02.943Z,99182.53
2022-08-18T17:45:45.679Z,99185.78
2022-08-18T17:48:22.605Z,99191.56
2022-08-18T17:51:17.627Z,99189.03
2022-08-18T17:53:48.436Z,99191.09
2022-08-18T17:56:35.634Z,99196.13
2022-08-18T17:59:51.083Z,99189.09
2022-08-18T18:02:28.463Z,99189.75
2022-08-18T18:05:02.150Z,99183.50
2022-08-18T18:07:40.004Z,99188.97
2022-08-18T18:10:14.332Z,99185.44
2022-08-18T18:12:48.742Z,99187.34
2022-08-18T18:15:33.253Z,99186.66
2022-08-18T18:18:23.960Z,99189.91
2022-08-18T18:21:06.149Z,99185.56
2022-08-18T18:23:45.074Z,99192.53
2022-08-18T18:26:28.751Z,99186.84
2022-08-18T18:29:20.384Z,99192.84
2022-08-18T18:32:06.965Z,99184.94
2022-08-18T18:34:45.602Z,99187.06
2022-08-18T18:37:31.860Z,99189.19
2022-08-18T18:40:19.596Z,99191.44
2022-08-18T18:42:50.807Z,99198.28
2022-08-18T18:45:31.552Z,99195.16
2022-08-18T18:48:45.309Z,99191.00
2022-08-18T18:51:10.516Z,99200.53
2022-08-18T18:53:57.967Z,99197.91
2022-08-18T18:56:36.128Z,99196.81
2022-08-18T18:59:18.568Z,99192.78
2022-08-18T19:02:01.218Z,99192.78
2022-08-18T19:04:38.992Z,99198.56
2022-08-18T19:07:21.009Z,99196.38
2022-08-18T19:10:01.995Z,99201.59
2022-08-18T19:12:43.634Z,99206.84
2022-08-18T19:15:17.739Z,99208.06
2022-08-18T19:17:53.402Z,99208.50
2022-08-18T19:20:32.773Z,99200.38
2022-08-18T19:23:10.470Z,99205.81
2022-08-18T19:25:52.262Z,99215.09
2022-08-18T19:28:30.312Z,99213.97
2022-08-18T19:31:07.535Z,99211.06
2022-08-18T19:33:44.511Z,99210.50
2022-08-18T19:36:38.218Z,99214.84
2022-08-18T19:39:16.043Z,99223.91
2022-08-18T19:42:03.541Z,99222.78
2022-08-18T19:44:44.256Z,99228.47
2022-08-18T19:47:26.852Z,99230.78
2022-08-18T19:50:09.416Z,99234.28
2022-08-18T19:52:57.762Z,99229.59
2022-08-18T19:55:42.346Z,99238.25
2022-08-18T19:58:49.190Z,99235.94
2022-08-18T20:01:39.852Z,99242.81
2022-08-18T20:04:21.999Z,99243.34
2022-08-18T20:07:32.257Z,99237.38
2022-08-18T20:10:25.361Z,99241.72
2022-08-18T20:13:17.038Z,99245.13
2022-08-18T20:16:12.038Z,99245.66
2022-08-18T20:18:43.350Z,99248.50
2022-08-18T20:21:41.638Z,99245.34
2022-08-18T20:24:41.065Z,99250.28
2022-08-18T20:27:36.752Z,99258.13
2022-08-18T20:30:33.235Z,99264.56
2022-08-18T20:33:21.633Z,99263.19
2022-08-18T20:36:04.395Z,99266.06
2022-08-18T20:38:36.965Z,99266.19
2022-08-18T20:41:43.659Z,99270.22
2022-08-18T20:44:49.961Z,99283.97
2022-08-18T20:47:48.948Z,99277.91
2022-08-18T20:50:48.254Z,99281.25
2022-08-18T20:53:32.849Z,99280.22
2022-08-18T20:56:32.517Z,99285.56
2022-08-18T20:59:10.811Z,99292.16
2022-08-18T21:01:43.779Z,99299.50
2022-08-18T21:04:15.998Z,99301.16
2022-08-18T21:06:48.667Z,99303.34
2022-08-18T21:09:19.612Z,99307.47
2022-08-18T21:11:51.081Z,99304.69
2022-08-18T21:14:29.875Z,99300.34
2022-08-18T21:17:01.291Z,99302.59
2022-08-18T21:19:33.628Z,99307.63
2022-08-18T21:22:05.317Z,99305.34
2022-08-18T21:24:40.022Z,99307.94
2022-08-18T21:27:19.423Z,99318.56
2022-08-18T21:29:52.734Z,99325.03
2022-08-18T21:32:29.861Z,99321.34
2022-08-18T21:35:02.266Z,99327.88
2022-08-18T21:37:34.558Z,99333.16
2022-08-18T21:40:05.568Z,99322.38
2022-08-18T21:42:44.963Z,99327.63
2022-08-18T21:45:20.382Z,99334.72
2022-08-18T21:47:58.977Z,99339.16
2022-08-18T21:50:30.602Z,99329.41
2022-08-18T21:53:02.488Z,99333.13
2022-08-18T21:55:35.050Z,99333.47
2022-08-18T21:58:08.741Z,99330.69
2022-08-18T22:00:40.127Z,99335.53
2022-08-18T22:03:20.698Z,99342.44
2022-08-18T22:06:00.046Z,99337.59
2022-08-18T22:08:31.934Z,99341.16
2022-08-18T22:12:00.486Z,99345.19
2022-08-18T22:14:54.755Z,99349.97
2022-08-18T22:17:35.149Z,99340.53
2022-08-18T22:20:41.883Z,99334.00
2022-08-18T22:23:56.408Z,99338.53
2022-08-18T22:26:28.664Z,99332.66
2022-08-18T22:29:11.916Z,99341.44
2022-08-18T22:31:45.343Z,99338.38
2022-08-18T22:34:27.879Z,99343.13
2022-08-18T22:37:01.600Z,99340.03
2022-08-18T22:39:35.065Z,99338.00
2022-08-18T22:42:06.009Z,99341.47
2022-08-18T22:44:35.555Z,99336.25
2022-08-18T22:47:05.663Z,99350.38
2022-08-18T22:49:37.124Z,99337.50
2022-08-18T22:52:12.562Z,99347.63
2022-08-18T22:54:42.272Z,99343.34
2022-08-18T22:57:13.133Z,99351.97
2022-08-18T22:59:44.687Z,99338.03
2022-08-18T23:02:22.042Z,99339.91
2022-08-18T23:04:51.976Z,99340.41
2022-08-18T23:07:24.033Z,99346.75
2022-08-18T23:09:53.911Z,99345.28
2022-08-18T23:12:23.374Z,99348.63
2022-08-18T23:14:53.547Z,99355.78
2022-08-18T23:17:23.679Z,99351.06
2022-08-18T23:19:53.191Z,99349.34
2022-08-18T23:22:23.966Z,99348.91
2022-08-18T23:24:55.476Z,99354.84
2022-08-18T23:27:25.124Z,99351.06
2022-08-18T23:29:55.854Z,99355.09
2022-08-18T23:32:29.581Z,99352.13
2022-08-18T23:35:02.783Z,99355.63
2022-08-18T23:37:35.091Z,99360.31
2022-08-18T23:40:07.104Z,99364.91
2022-08-18T23:42:37.130Z,99366.38
2022-08-18T23:45:07.660Z,99364.34
2022-08-18T23:47:37.424Z,99363.22
2022-08-18T23:50:08.133Z,99366.84
2022-08-18T23:52:39.982Z,99378.97
2022-08-18T23:55:12.152Z,99373.88
2022-08-18T23:57:41.930Z,99380.19
